Time;durP1;ratioP1;P1;durP2;ratioP2;P2;SDS_P1;SDS_P2;PMS_P1;PMS_P2;Temp;Humidity;BMP_temperature;BMP_pressure;BME280_temperature;BME280_humidity;BME280_pressure;Samples;Min_cycle;Max_cycle;Signal;HPM_P1;HPM_P2
2024/01/27 00:02:24;;;;;;;21.13;3.03;;;4.20;99.90;;;;;;6219099;23;20087;-85
2024/01/27 00:04:50;;;;;;;17.38;3.25;;;4.20;99.90;;;;;;6190123;23;20005;-84
2024/01/27 00:07:16;;;;;;;20.30;4.45;;;4.20;99.90;;;;;;6189772;23;20047;-86
2024/01/27 00:09:42;;;;;;;27.95;7.70;;;4.10;99.90;;;;;;6189610;23;20063;-84
2024/01/27 00:12:08;;;;;;;23.10;6.20;;;4.10;99.90;;;;;;6164756;23;20335;-84
2024/01/27 00:14:37;;;;;;;27.30;6.43;;;4.10;99.90;;;;;;6216462;23;20019;-86
2024/01/27 00:17:03;;;;;;;37.17;8.60;;;4.00;99.90;;;;;;6164743;23;20379;-83
2024/01/27 00:19:28;;;;;;;25.63;4.00;;;4.00;99.90;;;;;;6216393;23;20024;-85
2024/01/27 00:21:54;;;;;;;22.42;6.18;;;4.00;99.90;;;;;;6189481;23;20017;-85
2024/01/27 00:24:20;;;;;;;27.65;5.95;;;4.00;99.90;;;;;;6189522;23;20020;-84
2024/01/27 00:26:45;;;;;;;39.67;5.00;;;3.90;99.90;;;;;;6164576;23;20024;-83
2024/01/27 00:29:11;;;;;;;26.20;3.38;;;3.90;99.90;;;;;;6189289;23;20074;-86
2024/01/27 05:01:33;;;;;;;20.55;2.60;;;3.70;99.90;;;;;;6217368;22;20172;-83
2024/01/27 05:03:59;;;;;;;19.98;2.67;;;3.70;99.90;;;;;;6219917;23;20012;-83
2024/01/27 05:06:25;;;;;;;14.07;3.10;;;3.70;99.90;;;;;;6219595;23;20079;-83
2024/01/27 05:08:51;;;;;;;23.85;3.55;;;3.70;99.90;;;;;;6246282;23;20376;-83
2024/01/27 05:11:25;;;;;;;23.25;2.75;;;3.70;99.90;;;;;;6245928;23;20012;-82
2024/01/27 05:13:51;;;;;;;14.52;3.10;;;3.70;99.90;;;;;;6219276;23;20020;-84
2024/01/27 05:16:16;;;;;;;23.10;3.78;;;3.70;99.90;;;;;;6245923;23;20016;-83
2024/01/27 05:18:42;;;;;;;16.90;2.97;;;3.70;99.90;;;;;;6246276;23;20015;-83
2024/01/27 05:21:08;;;;;;;25.35;3.42;;;3.70;99.90;;;;;;6194064;23;20008;-83
2024/01/27 05:23:34;;;;;;;21.85;3.63;;;3.80;99.90;;;;;;6246271;23;20079;-84
2024/01/27 05:25:59;;;;;;;23.13;3.78;;;3.70;99.90;;;;;;6193976;23;20019;-85
2024/01/27 05:28:25;;;;;;;22.88;3.15;;;3.70;99.90;;;;;;6219202;23;20016;-83
2024/01/27 05:30:50;;;;;;;36.53;4.70;;;3.70;99.90;;;;;;6245994;22;20091;-83
2024/01/27 05:33:16;;;;;;;24.02;3.75;;;3.60;99.90;;;;;;6245865;23;20175;-83
2024/01/27 05:35:42;;;;;;;21.77;3.80;;;3.60;99.90;;;;;;6246145;23;20113;-84
2024/01/27 05:38:08;;;;;;;20.90;2.97;;;3.60;99.90;;;;;;6219083;23;20012;-83
2024/01/27 05:40:34;;;;;;;26.67;3.83;;;3.60;99.90;;;;;;6218970;22;20074;-83
2024/01/27 05:42:59;;;;;;;27.90;4.07;;;3.60;99.90;;;;;;6219044;23;20012;-83
2024/01/27 05:45:26;;;;;;;21.55;3.08;;;3.60;99.90;;;;;;6219577;23;20012;-83
2024/01/27 05:47:52;;;;;;;18.67;3.65;;;3.50;99.90;;;;;;6246129;23;20016;-84
2024/01/27 05:50:18;;;;;;;20.85;3.42;;;3.50;99.90;;;;;;6218923;22;20019;-83
2024/01/27 05:52:43;;;;;;;24.30;3.85;;;3.60;99.90;;;;;;6246170;23;20016;-85
2024/01/27 05:55:11;;;;;;;15.90;3.15;;;3.60;99.90;;;;;;6246201;23;20379;-83
2024/01/27 05:57:37;;;;;;;17.70;2.75;;;3.50;99.90;;;;;;6246183;23;20330;-84
2024/01/27 06:00:03;;;;;;;20.30;2.85;;;3.50;99.90;;;;;;6246115;23;20012;-84
2024/01/27 06:02:28;;;;;;;21.70;4.40;;;3.50;99.90;;;;;;6245537;22;20008;-84
2024/01/27 06:04:54;;;;;;;25.30;3.40;;;3.50;99.90;;;;;;6246064;23;20050;-84
2024/01/27 06:07:20;;;;;;;20.23;3.50;;;3.60;99.90;;;;;;6245678;23;20012;-84
2024/01/27 06:09:45;;;;;;;21.05;3.40;;;3.60;99.90;;;;;;6218862;23;20023;-83
2024/01/27 06:12:11;;;;;;;25.23;3.97;;;3.60;99.90;;;;;;6245902;22;20083;-83
2024/01/27 06:14:37;;;;;;;22.23;3.75;;;3.70;99.90;;;;;;6246032;23;20008;-83
2024/01/27 06:17:05;;;;;;;23.77;4.03;;;3.70;99.90;;;;;;6246307;23;20452;-84
2024/01/27 06:19:31;;;;;;;21.67;3.85;;;3.70;99.90;;;;;;6193970;23;20008;-84
2024/01/27 06:21:57;;;;;;;24.45;3.88;;;3.70;99.90;;;;;;6218748;23;20146;-84
2024/01/27 06:24:24;;;;;;;18.48;2.90;;;3.70;99.90;;;;;;6245969;23;20015;-83
2024/01/27 06:26:49;;;;;;;21.38;5.00;;;3.70;99.90;;;;;;6220651;23;20012;-84
2024/01/27 06:29:16;;;;;;;25.85;3.58;;;3.80;99.90;;;;;;6247689;23;20370;-83
2024/01/27 06:31:41;;;;;;;28.95;3.78;;;3.80;99.90;;;;;;6220597;23;20387;-84
2024/01/27 06:34:07;;;;;;;21.45;4.28;;;3.90;99.90;;;;;;6220782;23;20008;-84
2024/01/27 06:36:33;;;;;;;29.02;3.80;;;3.80;99.90;;;;;;6247822;23;20008;-84
2024/01/27 06:38:59;;;;;;;26.95;3.75;;;3.80;99.90;;;;;;6220672;23;20464;-83
2024/01/27 06:41:24;;;;;;;29.17;4.05;;;3.90;99.90;;;;;;6247726;22;20326;-83
2024/01/27 06:43:50;;;;;;;27.35;4.57;;;3.80;99.90;;;;;;6221463;23;20042;-84
2024/01/27 06:46:16;;;;;;;23.58;5.47;;;3.80;99.90;;;;;;6247712;23;20023;-86
2024/01/27 06:48:43;;;;;;;32.20;4.40;;;3.80;99.90;;;;;;6247301;23;20012;-85
2024/01/27 06:51:08;;;;;;;31.23;5.20;;;3.70;99.90;;;;;;6247543;22;20436;-84
2024/01/27 06:53:34;;;;;;;21.85;4.28;;;3.70;99.90;;;;;;6247790;23;20036;-79
2024/01/27 06:56:00;;;;;;;27.40;4.65;;;3.70;99.90;;;;;;6247683;23;20014;-85
2024/01/27 06:58:28;;;;;;;23.85;3.97;;;3.60;99.90;;;;;;6220578;23;20023;-86
2024/01/27 07:00:54;;;;;;;24.75;4.78;;;3.50;99.90;;;;;;6247404;22;20020;-85
2024/01/27 07:03:19;;;;;;;30.52;4.97;;;3.50;99.90;;;;;;6247777;23;20019;-87
2024/01/27 07:05:45;;;;;;;27.27;4.75;;;3.40;99.90;;;;;;6221079;23;20027;-85
2024/01/27 07:08:11;;;;;;;25.90;4.55;;;3.40;99.90;;;;;;6247741;23;20016;-84
2024/01/27 07:10:37;;;;;;;28.55;6.00;;;3.50;99.90;;;;;;6247630;22;20016;-84
2024/01/27 07:13:06;;;;;;;27.00;4.55;;;3.40;99.90;;;;;;6220800;23;20381;-86
2024/01/27 07:15:31;;;;;;;26.33;4.95;;;3.40;99.90;;;;;;6220930;23;20369;-85
2024/01/27 07:17:57;;;;;;;32.90;5.85;;;3.30;99.90;;;;;;6248568;23;20070;-86
2024/01/27 07:20:24;;;;;;;23.45;5.90;;;3.30;99.90;;;;;;6221452;22;20465;-85
2024/01/27 07:22:50;;;;;;;30.45;5.57;;;3.20;99.90;;;;;;6195314;23;20066;-85
2024/01/27 07:25:15;;;;;;;28.23;5.85;;;3.20;99.90;;;;;;6220346;23;20429;-89
2024/01/27 07:27:41;;;;;;;31.20;6.43;;;3.10;99.90;;;;;;6221204;23;20012;-84
2024/01/27 07:30:09;;;;;;;25.15;6.25;;;3.10;99.90;;;;;;6222106;23;20334;-87
2024/01/27 07:32:35;;;;;;;24.05;6.05;;;3.10;99.90;;;;;;6221752;23;20016;-84
2024/01/27 07:35:01;;;;;;;35.22;7.68;;;3.00;99.90;;;;;;6247106;23;20015;-84
2024/01/27 07:37:27;;;;;;;28.00;6.85;;;3.00;99.90;;;;;;6219532;23;20012;-83
2024/01/27 07:39:52;;;;;;;27.67;7.32;;;3.00;99.90;;;;;;6247141;23;20079;-84
2024/01/27 07:42:19;;;;;;;30.52;6.65;;;3.10;99.90;;;;;;6248018;22;20012;-84
2024/01/27 07:44:44;;;;;;;26.15;7.18;;;3.10;99.90;;;;;;6220888;23;20024;-82
2024/01/27 07:47:10;;;;;;;25.20;7.50;;;3.10;99.90;;;;;;6220085;23;20449;-83
2024/01/27 07:49:36;;;;;;;34.53;7.10;;;3.10;99.90;;;;;;6247532;23;20012;-83
2024/01/27 07:52:01;;;;;;;27.25;7.00;;;3.00;99.90;;;;;;6221073;23;20012;-83
2024/01/27 07:54:27;;;;;;;35.95;7.45;;;3.10;99.90;;;;;;6248132;23;20018;-84
2024/01/27 07:56:52;;;;;;;34.72;8.25;;;3.10;99.90;;;;;;6247786;23;20009;-83
2024/01/27 07:59:18;;;;;;;29.63;7.60;;;3.10;99.90;;;;;;6247819;23;20039;-84
2024/01/27 08:01:44;;;;;;;30.60;7.55;;;3.10;99.90;;;;;;6252902;22;20027;-84
2024/01/27 08:04:10;;;;;;;33.47;8.57;;;3.10;99.90;;;;;;6278595;22;20061;-82
2024/01/27 08:06:49;;;;;;;31.50;8.43;;;3.10;99.90;;;;;;6277257;22;20086;-84
2024/01/27 08:09:16;;;;;;;25.38;8.07;;;3.20;99.90;;;;;;6278415;22;20047;-84
2024/01/27 08:11:42;;;;;;;31.55;7.93;;;3.20;99.90;;;;;;6277802;22;20011;-85
2024/01/27 08:14:08;;;;;;;25.92;7.25;;;3.20;99.90;;;;;;6276059;22;20107;-84
2024/01/27 08:16:34;;;;;;;30.35;9.18;;;3.20;99.90;;;;;;6275927;22;20051;-83
2024/01/27 08:18:59;;;;;;;28.60;7.88;;;3.20;99.90;;;;;;6280368;22;20036;-84
2024/01/27 08:21:25;;;;;;;30.17;9.50;;;3.30;99.90;;;;;;6283219;22;20016;-84
2024/01/27 08:23:50;;;;;;;31.90;8.27;;;3.20;99.90;;;;;;6295358;22;20027;-82
2024/01/27 08:26:18;;;;;;;32.10;8.20;;;3.30;99.90;;;;;;6272531;22;20007;-84
2024/01/27 08:28:44;;;;;;;22.25;7.25;;;3.30;99.90;;;;;;6280549;22;20084;-85
2024/01/27 08:31:10;;;;;;;29.33;8.13;;;3.30;99.90;;;;;;6278658;22;20087;-84
2024/01/27 08:33:35;;;;;;;27.95;8.30;;;3.30;99.90;;;;;;6278325;22;20010;-84
2024/01/27 08:36:01;;;;;;;26.00;7.93;;;3.30;99.90;;;;;;6275869;22;20022;-85
2024/01/27 08:38:27;;;;;;;24.45;8.32;;;3.40;99.90;;;;;;6277309;22;20011;-84
2024/01/27 08:40:53;;;;;;;33.42;8.60;;;3.40;99.90;;;;;;6275592;22;20016;-86
2024/01/27 08:43:19;;;;;;;29.58;8.05;;;3.50;99.90;;;;;;6275601;22;20022;-84
2024/01/27 08:45:44;;;;;;;37.10;9.93;;;3.50;99.90;;;;;;6275460;22;20095;-85
2024/01/27 08:48:11;;;;;;;26.67;7.97;;;3.50;99.90;;;;;;6277723;22;20016;-85
2024/01/27 08:50:37;;;;;;;24.73;8.57;;;3.50;99.90;;;;;;6275570;22;20376;-85
2024/01/27 08:53:03;;;;;;;21.17;7.78;;;3.60;99.90;;;;;;6276793;22;20016;-85
2024/01/27 08:55:28;;;;;;;29.55;9.30;;;3.70;99.90;;;;;;6276044;22;20012;-85
2024/01/27 08:57:56;;;;;;;29.55;8.95;;;3.80;99.90;;;;;;6278458;22;20012;-85
2024/01/27 09:00:22;;;;;;;25.20;9.43;;;4.00;99.90;;;;;;6274507;22;20345;-84
2024/01/27 09:02:48;;;;;;;34.35;9.93;;;4.10;99.90;;;;;;6220295;23;20023;-85
2024/01/27 09:05:14;;;;;;;32.42;8.50;;;4.30;99.90;;;;;;6195219;23;20012;-86
2024/01/27 09:07:39;;;;;;;29.63;9.23;;;4.70;99.90;;;;;;6247229;23;20523;-85
2024/01/27 09:10:06;;;;;;;27.35;6.97;;;5.20;99.90;;;;;;6247043;23;20107;-85
2024/01/27 09:12:32;;;;;;;35.20;9.48;;;5.50;99.90;;;;;;6247407;22;20015;-85
2024/01/27 09:14:58;;;;;;;20.63;8.20;;;5.70;99.90;;;;;;6219990;23;20051;-86
2024/01/27 09:17:24;;;;;;;28.73;8.55;;;6.00;99.90;;;;;;6220850;23;20377;-84
2024/01/27 09:19:50;;;;;;;26.98;9.07;;;6.30;99.90;;;;;;6220484;23;20073;-85
2024/01/27 09:22:16;;;;;;;25.23;8.65;;;6.50;99.90;;;;;;6247863;22;20016;-81
2024/01/27 09:24:42;;;;;;;20.95;8.02;;;6.60;99.90;;;;;;6246914;23;20051;-84
2024/01/27 09:27:07;;;;;;;26.25;8.73;;;6.60;99.90;;;;;;6220331;23;20023;-84
2024/01/27 09:29:33;;;;;;;30.27;8.60;;;6.20;99.90;;;;;;6246833;23;20019;-84
2024/01/27 09:31:58;;;;;;;22.67;8.05;;;5.80;99.90;;;;;;6247477;22;20014;-83
2024/01/27 09:34:24;;;;;;;25.90;8.30;;;5.50;99.90;;;;;;6195087;23;20020;-84
2024/01/27 09:36:50;;;;;;;33.72;8.95;;;5.70;99.90;;;;;;6195347;23;20497;-83
2024/01/27 09:39:16;;;;;;;24.25;7.75;;;6.10;99.90;;;;;;6220775;23;20437;-83
2024/01/27 09:41:42;;;;;;;34.13;8.60;;;6.40;99.90;;;;;;6219587;23;20020;-85
2024/01/27 09:44:10;;;;;;;20.33;7.28;;;6.80;99.90;;;;;;6220196;23;20020;-84
2024/01/27 09:46:35;;;;;;;29.13;8.32;;;7.00;99.90;;;;;;6247698;23;20012;-87
2024/01/27 09:49:03;;;;;;;22.15;7.72;;;7.10;99.90;;;;;;6195345;23;20020;-87
2024/01/27 09:51:29;;;;;;;25.98;7.57;;;7.30;99.90;;;;;;6220603;23;20012;-87
2024/01/27 09:53:55;;;;;;;26.65;7.53;;;7.30;99.90;;;;;;6220472;23;20088;-86
2024/01/27 09:56:21;;;;;;;29.77;7.72;;;7.30;99.90;;;;;;6219896;23;20067;-87
2024/01/27 09:58:49;;;;;;;24.92;7.40;;;7.40;99.90;;;;;;6218989;23;20004;-80
2024/01/27 10:01:20;;;;;;;22.50;7.72;;;7.20;99.90;;;;;;6216134;22;20011;-85
2024/01/27 10:03:46;;;;;;;20.65;7.60;;;7.50;99.90;;;;;;6279174;22;20012;-85
2024/01/27 10:06:14;;;;;;;36.35;8.07;;;7.50;99.90;;;;;;6279437;22;20382;-84
2024/01/27 10:08:40;;;;;;;23.08;8.18;;;7.40;99.90;;;;;;6279758;22;20015;-85
2024/01/27 10:11:10;;;;;;;26.23;7.82;;;7.50;99.90;;;;;;6277610;22;20346;-84
2024/01/27 10:13:39;;;;;;;25.83;7.50;;;7.70;99.90;;;;;;6279420;22;20011;-85
2024/01/27 10:16:07;;;;;;;19.02;7.38;;;7.70;99.90;;;;;;6279853;22;20015;-83
2024/01/27 10:18:34;;;;;;;26.42;7.13;;;7.70;99.90;;;;;;6279290;22;20023;-83
2024/01/27 10:21:00;;;;;;;20.42;6.15;;;7.80;99.90;;;;;;6279203;22;20008;-84
2024/01/27 10:23:26;;;;;;;26.67;6.57;;;7.70;99.90;;;;;;6279645;22;20078;-84
2024/01/27 10:25:52;;;;;;;22.40;6.50;;;7.60;99.90;;;;;;6252010;22;20015;-85
2024/01/27 10:28:18;;;;;;;26.38;7.85;;;7.60;99.90;;;;;;6277818;22;20007;-83
2024/01/27 10:30:45;;;;;;;29.77;7.18;;;7.50;99.90;;;;;;6278056;22;20016;-84
2024/01/27 10:33:14;;;;;;;22.60;6.72;;;7.60;99.90;;;;;;6279283;22;20038;-84
2024/01/27 10:35:41;;;;;;;21.80;6.90;;;7.70;99.90;;;;;;6279595;22;20014;-83
2024/01/27 10:38:07;;;;;;;24.90;7.80;;;7.60;99.90;;;;;;6279278;22;20011;-83
2024/01/27 10:40:33;;;;;;;26.05;6.15;;;7.70;99.90;;;;;;6279225;22;20376;-84
2024/01/27 10:43:07;;;;;;;18.23;6.03;;;7.80;99.90;;;;;;6279607;22;20018;-84
2024/01/27 10:45:38;;;;;;;27.20;6.70;;;7.80;99.90;;;;;;6278121;22;20086;-83
2024/01/27 10:48:05;;;;;;;18.67;6.30;;;7.80;99.90;;;;;;6277602;22;20112;-84
2024/01/27 10:50:36;;;;;;;25.65;6.88;;;7.90;99.90;;;;;;6277366;22;20345;-85
2024/01/27 10:53:05;;;;;;;23.73;7.20;;;7.80;99.90;;;;;;6277990;22;20016;-83
2024/01/27 10:55:33;;;;;;;17.52;5.57;;;7.70;99.90;;;;;;6277622;22;20041;-83
2024/01/27 10:58:01;;;;;;;21.63;5.68;;;7.80;99.90;;;;;;6279212;22;20141;-83
2024/01/27 11:00:30;;;;;;;22.55;5.90;;;7.70;99.90;;;;;;6276405;22;20492;-83
2024/01/27 11:03:00;;;;;;;23.73;6.32;;;7.80;99.90;;;;;;6248800;23;20016;-83
2024/01/27 11:05:28;;;;;;;26.42;6.25;;;7.80;99.90;;;;;;6222017;23;20016;-85
2024/01/27 11:07:54;;;;;;;17.70;5.72;;;7.90;99.90;;;;;;6221674;23;20102;-85
2024/01/27 11:10:20;;;;;;;20.70;6.80;;;7.90;99.90;;;;;;6248729;22;20012;-84
2024/01/27 11:12:48;;;;;;;18.17;6.13;;;7.90;99.90;;;;;;6222006;23;20009;-82
2024/01/27 11:15:13;;;;;;;23.58;6.18;;;8.00;99.90;;;;;;6220906;23;20062;-82
2024/01/27 11:17:42;;;;;;;22.63;6.50;;;8.10;99.90;;;;;;6221186;23;20434;-81
2024/01/27 11:20:11;;;;;;;17.67;6.28;;;8.20;99.90;;;;;;6221773;23;20090;-84
2024/01/27 11:22:37;;;;;;;19.75;6.38;;;8.20;99.90;;;;;;6248699;22;20087;-80
2024/01/27 11:25:12;;;;;;;19.67;6.47;;;8.40;99.90;;;;;;6249263;23;20012;-82
2024/01/27 11:27:39;;;;;;;30.42;6.55;;;8.40;99.90;;;;;;6198252;23;20012;-84
2024/01/27 11:30:06;;;;;;;26.98;6.40;;;8.40;99.90;;;;;;6221274;23;20016;-84
2024/01/27 11:32:32;;;;;;;17.65;6.25;;;8.50;99.90;;;;;;6221549;23;20009;-84
2024/01/27 11:35:02;;;;;;;20.88;5.75;;;8.60;99.90;;;;;;6248484;23;20386;-84
2024/01/27 11:37:30;;;;;;;19.00;5.15;;;8.80;99.90;;;;;;6248936;23;20015;-83
2024/01/27 11:40:07;;;;;;;13.88;5.13;;;9.00;99.90;;;;;;6250054;23;20157;-84
2024/01/27 11:42:32;;;;;;;20.20;5.38;;;9.00;99.90;;;;;;6249190;22;20012;-83
2024/01/27 11:44:58;;;;;;;21.85;5.22;;;9.00;99.90;;;;;;6249386;23;20047;-84
2024/01/27 11:47:26;;;;;;;24.85;5.30;;;9.20;99.90;;;;;;6220817;23;20016;-84
2024/01/27 11:49:56;;;;;;;19.98;5.53;;;9.30;99.90;;;;;;6220519;23;20020;-85
2024/01/27 11:52:23;;;;;;;17.00;5.40;;;9.20;99.90;;;;;;6248030;22;20012;-86
2024/01/27 11:54:58;;;;;;;19.23;5.13;;;9.20;99.90;;;;;;6221295;23;20062;-84
2024/01/27 11:57:25;;;;;;;20.58;5.90;;;9.20;99.90;;;;;;6221029;23;20067;-83
2024/01/27 11:59:52;;;;;;;19.13;5.28;;;9.10;99.90;;;;;;6247818;23;20087;-83
2024/01/27 12:02:18;;;;;;;18.45;4.43;;;9.20;99.90;;;;;;6267395;22;20027;-83
2024/01/27 12:04:44;;;;;;;18.88;5.68;;;9.10;99.90;;;;;;6278556;22;20022;-84
2024/01/27 12:07:10;;;;;;;29.75;5.75;;;9.00;99.90;;;;;;6276661;22;20015;-82
2024/01/27 12:09:36;;;;;;;21.98;6.28;;;9.00;99.90;;;;;;6276312;22;20133;-83
2024/01/27 12:12:03;;;;;;;22.40;6.13;;;9.00;99.90;;;;;;6277967;22;20035;-84
2024/01/27 12:14:45;;;;;;;27.80;6.70;;;9.10;99.90;;;;;;6277439;22;20007;-82
2024/01/27 12:17:12;;;;;;;22.23;6.25;;;9.10;99.90;;;;;;6275928;22;20007;-82
2024/01/27 12:19:38;;;;;;;30.27;6.18;;;9.20;99.90;;;;;;6275882;22;20345;-84
2024/01/27 12:22:20;;;;;;;14.73;5.00;;;9.20;99.90;;;;;;6277074;22;20020;-83
2024/01/27 12:24:45;;;;;;;19.60;5.68;;;9.20;99.90;;;;;;6276087;22;20353;-84
2024/01/27 12:27:11;;;;;;;22.77;6.03;;;9.20;99.90;;;;;;6275572;22;20012;-80
2024/01/27 12:29:37;;;;;;;25.40;5.43;;;9.30;99.90;;;;;;6276058;22;20020;-81
2024/01/27 12:32:03;;;;;;;23.35;5.38;;;9.40;99.90;;;;;;6277407;22;20318;-83
2024/01/27 12:34:29;;;;;;;25.38;5.78;;;9.30;99.90;;;;;;6276646;22;20019;-83
2024/01/27 12:36:55;;;;;;;21.60;5.95;;;9.30;99.90;;;;;;6278690;22;20057;-88
2024/01/27 12:39:21;;;;;;;26.80;6.43;;;9.30;99.90;;;;;;6278030;22;20083;-82
2024/01/27 12:41:47;;;;;;;34.45;6.38;;;9.40;99.90;;;;;;6276781;22;20449;-86
2024/01/27 12:44:13;;;;;;;25.90;6.38;;;9.50;99.90;;;;;;6278383;22;20050;-86
2024/01/27 12:46:38;;;;;;;22.30;5.88;;;9.40;99.90;;;;;;6250522;22;20024;-86
2024/01/27 12:49:05;;;;;;;23.02;5.93;;;9.40;99.90;;;;;;6276645;22;20093;-85
2024/01/27 12:51:30;;;;;;;22.02;6.25;;;9.30;99.90;;;;;;6276494;22;20504;-85
2024/01/27 12:53:56;;;;;;;29.00;9.00;;;9.40;99.90;;;;;;6251004;22;20012;-87
2024/01/27 12:56:22;;;;;;;22.17;6.45;;;9.40;99.90;;;;;;6275899;22;20074;-86
2024/01/27 12:58:48;;;;;;;18.08;6.40;;;9.60;99.90;;;;;;6278083;22;20007;-85
2024/01/27 13:01:14;;;;;;;26.70;6.97;;;9.80;99.90;;;;;;6275818;22;20180;-86
2024/01/27 13:03:39;;;;;;;22.25;6.53;;;9.80;99.90;;;;;;6276067;22;20461;-87
2024/01/27 13:06:05;;;;;;;30.73;7.85;;;9.90;99.90;;;;;;6276012;22;20126;-86
2024/01/27 13:08:31;;;;;;;18.05;6.13;;;10.00;99.90;;;;;;6278188;22;20019;-86
2024/01/27 13:10:57;;;;;;;20.80;6.82;;;10.00;99.90;;;;;;6277284;22;20042;-86
2024/01/27 13:13:23;;;;;;;20.15;6.18;;;9.90;99.90;;;;;;6250548;22;20488;-85
2024/01/27 13:15:48;;;;;;;25.80;6.68;;;9.70;99.90;;;;;;6276135;22;20018;-85
2024/01/27 13:18:14;;;;;;;22.67;8.32;;;9.70;99.90;;;;;;6250832;22;20091;-85
2024/01/27 13:20:40;;;;;;;42.35;11.75;;;9.70;99.90;;;;;;6277983;22;20039;-86
2024/01/27 13:23:07;;;;;;;45.75;15.10;;;9.70;99.90;;;;;;6250958;22;20071;-86
2024/01/27 13:25:33;;;;;;;40.38;12.57;;;9.60;99.90;;;;;;6276603;22;20015;-84
2024/01/27 13:27:59;;;;;;;37.25;11.07;;;9.60;99.90;;;;;;6277703;22;20388;-85
2024/01/27 13:30:25;;;;;;;31.35;9.95;;;9.60;99.90;;;;;;6276236;22;20047;-85
2024/01/27 13:32:51;;;;;;;31.80;9.73;;;9.50;99.90;;;;;;6279559;22;20012;-86
2024/01/27 13:35:16;;;;;;;30.33;8.13;;;9.50;99.90;;;;;;6288749;22;20495;-85
2024/01/27 13:37:42;;;;;;;33.25;9.52;;;9.50;99.90;;;;;;6295375;22;20012;-87
2024/01/27 13:40:09;;;;;;;24.88;7.10;;;9.40;99.90;;;;;;6298066;22;20015;-86
2024/01/27 13:42:36;;;;;;;28.10;8.15;;;9.50;99.90;;;;;;6299284;22;20022;-86
2024/01/27 13:45:01;;;;;;;20.38;7.38;;;9.60;99.90;;;;;;6293207;22;20067;-85
2024/01/27 13:47:28;;;;;;;25.90;7.50;;;9.60;99.90;;;;;;6292382;22;20023;-85
2024/01/27 13:49:54;;;;;;;27.88;5.90;;;9.60;99.90;;;;;;6267311;22;20020;-87
2024/01/27 13:52:20;;;;;;;22.13;5.78;;;9.60;99.90;;;;;;6282644;22;20023;-84
2024/01/27 13:54:45;;;;;;;24.23;5.82;;;9.60;99.90;;;;;;6279421;22;20011;-86
2024/01/27 13:57:11;;;;;;;18.75;5.55;;;9.70;99.90;;;;;;6278776;22;20082;-85
2024/01/27 13:59:37;;;;;;;22.48;5.63;;;9.80;99.90;;;;;;6278536;22;20011;-85
2024/01/27 14:02:03;;;;;;;20.27;5.45;;;10.00;99.90;;;;;;6257651;22;20015;-87
2024/01/27 14:04:29;;;;;;;17.40;4.97;;;10.00;99.90;;;;;;6223518;23;20054;-87
2024/01/27 14:06:56;;;;;;;17.92;4.50;;;9.90;99.90;;;;;;6221611;23;20045;-87
2024/01/27 14:09:22;;;;;;;21.75;4.82;;;9.70;99.90;;;;;;6221417;23;20442;-86
2024/01/27 14:11:48;;;;;;;21.10;5.10;;;9.50;99.90;;;;;;6248994;22;20311;-86
2024/01/27 14:14:14;;;;;;;25.90;5.45;;;9.40;99.90;;;;;;6221928;23;20101;-86
2024/01/27 14:16:39;;;;;;;24.48;4.80;;;9.30;99.90;;;;;;6248758;23;20338;-86
2024/01/27 14:19:06;;;;;;;20.63;5.43;;;9.20;99.90;;;;;;6221518;23;20016;-80
2024/01/27 14:21:32;;;;;;;20.85;5.75;;;9.00;99.90;;;;;;6249111;22;20010;-83
2024/01/27 14:24:02;;;;;;;20.50;5.05;;;8.90;99.90;;;;;;6221913;23;20039;-85
2024/01/27 14:26:29;;;;;;;22.80;5.20;;;8.70;99.90;;;;;;6222206;23;20453;-84
2024/01/27 14:28:55;;;;;;;23.60;4.97;;;8.70;99.90;;;;;;6248882;23;20016;-85
2024/01/27 14:31:21;;;;;;;28.98;6.10;;;8.50;99.90;;;;;;6248140;22;20018;-84
2024/01/27 14:33:47;;;;;;;22.52;6.05;;;8.50;99.90;;;;;;6221049;23;20012;-83
2024/01/27 14:36:13;;;;;;;24.15;5.57;;;8.40;99.90;;;;;;6248313;23;20030;-83
2024/01/27 14:38:40;;;;;;;33.60;6.85;;;8.40;99.90;;;;;;6221136;23;20004;-84
2024/01/27 14:41:11;;;;;;;30.60;6.63;;;8.40;99.90;;;;;;6247904;22;20044;-83
2024/01/27 14:43:38;;;;;;;26.20;6.75;;;8.30;99.90;;;;;;6248356;23;20070;-84
2024/01/27 14:46:04;;;;;;;24.08;6.32;;;8.30;99.90;;;;;;6248604;23;20099;-85
2024/01/27 14:48:30;;;;;;;26.20;7.00;;;8.30;99.90;;;;;;6248164;23;20016;-85
2024/01/27 14:50:59;;;;;;;18.08;5.25;;;8.30;99.90;;;;;;6221329;23;20091;-85
2024/01/27 14:53:28;;;;;;;17.42;4.90;;;8.20;99.90;;;;;;6221487;23;20073;-86
2024/01/27 14:55:55;;;;;;;22.50;4.95;;;8.20;99.90;;;;;;6248207;23;20450;-83
2024/01/27 14:58:21;;;;;;;23.17;5.00;;;8.20;99.90;;;;;;6221287;23;20008;-81
2024/01/27 15:00:53;;;;;;;15.50;4.40;;;8.10;99.90;;;;;;6247600;22;20016;-82
2024/01/27 15:03:23;;;;;;;20.42;4.28;;;8.00;99.90;;;;;;6248268;23;20012;-84
2024/01/27 15:05:50;;;;;;;19.75;5.00;;;7.90;99.90;;;;;;6221381;23;20016;-82
2024/01/27 15:08:20;;;;;;;19.35;5.60;;;7.90;99.90;;;;;;6248255;23;20087;-83
2024/01/27 15:10:47;;;;;;;23.48;4.70;;;7.80;99.90;;;;;;6247902;22;20008;-82
2024/01/27 15:13:13;;;;;;;21.23;5.00;;;7.80;99.90;;;;;;6195664;23;20008;-82
2024/01/27 15:15:39;;;;;;;24.48;4.85;;;7.80;99.90;;;;;;6247504;23;20337;-82
2024/01/27 15:18:07;;;;;;;21.63;3.80;;;7.70;99.90;;;;;;6247781;23;20044;-83
2024/01/27 15:20:33;;;;;;;19.10;4.60;;;7.70;99.90;;;;;;6247845;22;20390;-81
2024/01/27 15:22:59;;;;;;;19.88;4.82;;;7.60;99.90;;;;;;6220803;23;20012;-84
2024/01/27 15:25:24;;;;;;;14.63;3.80;;;7.60;99.90;;;;;;6221229;23;20026;-84
2024/01/27 15:27:51;;;;;;;23.30;5.05;;;7.60;99.90;;;;;;6220766;23;20016;-83
2024/01/27 15:30:17;;;;;;;20.25;4.40;;;7.50;99.90;;;;;;6220541;22;20345;-83
2024/01/27 15:32:46;;;;;;;29.73;4.97;;;7.40;99.90;;;;;;6248238;23;20434;-84
2024/01/27 15:35:12;;;;;;;21.67;4.22;;;7.30;99.90;;;;;;6221123;23;20020;-83
2024/01/27 15:37:38;;;;;;;19.20;4.50;;;7.30;99.90;;;;;;6221163;23;20092;-82
2024/01/27 15:40:05;;;;;;;20.45;5.68;;;7.20;99.90;;;;;;6220749;23;20016;-82
2024/01/27 15:42:31;;;;;;;21.52;5.40;;;7.20;99.90;;;;;;6247356;22;20446;-82
2024/01/27 15:44:57;;;;;;;25.77;5.22;;;7.20;99.90;;;;;;6247110;23;20020;-80
2024/01/27 15:47:23;;;;;;;23.60;6.28;;;7.10;99.90;;;;;;6247177;23;20016;-82
2024/01/27 15:49:56;;;;;;;30.17;7.00;;;7.00;99.90;;;;;;6247826;23;20352;-82
2024/01/27 15:52:23;;;;;;;27.70;6.03;;;7.00;99.90;;;;;;6221404;23;20023;-82
2024/01/27 15:54:49;;;;;;;29.27;6.57;;;6.90;99.90;;;;;;6220483;23;20069;-82
2024/01/27 15:57:14;;;;;;;28.80;7.07;;;6.90;99.90;;;;;;6247464;23;20047;-81
2024/01/27 15:59:40;;;;;;;21.80;6.35;;;6.90;99.90;;;;;;6247714;23;20511;-82
2024/01/27 16:02:07;;;;;;;26.10;6.35;;;6.80;99.90;;;;;;6261937;22;20047;-83
2024/01/27 16:04:32;;;;;;;22.88;5.72;;;6.80;99.90;;;;;;6278489;22;20020;-81
2024/01/27 16:06:58;;;;;;;22.38;5.85;;;6.70;99.90;;;;;;6278647;22;20061;-83
2024/01/27 16:09:24;;;;;;;21.80;5.68;;;6.70;99.90;;;;;;6278082;22;20051;-83
2024/01/27 16:11:49;;;;;;;23.70;5.13;;;6.60;99.90;;;;;;6276146;22;20019;-81
2024/01/27 16:14:16;;;;;;;23.88;5.20;;;6.60;99.90;;;;;;6276602;22;20118;-82
2024/01/27 16:16:42;;;;;;;15.43;4.40;;;6.60;99.90;;;;;;6276325;22;20012;-82
2024/01/27 16:19:07;;;;;;;20.33;5.13;;;6.50;99.90;;;;;;6276493;22;20093;-82
2024/01/27 16:21:33;;;;;;;18.50;4.95;;;6.40;99.90;;;;;;6276784;22;20357;-84
2024/01/27 16:23:59;;;;;;;18.52;4.57;;;6.40;99.90;;;;;;6278419;22;20012;-83
2024/01/27 16:26:27;;;;;;;16.58;4.40;;;6.40;99.90;;;;;;6276582;22;20082;-83
2024/01/27 16:28:52;;;;;;;22.73;5.90;;;6.30;99.90;;;;;;6276452;22;20019;-83
2024/01/27 16:31:18;;;;;;;19.17;4.80;;;6.30;99.90;;;;;;6277743;22;20012;-82
2024/01/27 16:33:44;;;;;;;18.58;4.47;;;6.30;99.90;;;;;;6278048;22;20020;-81
2024/01/27 16:36:09;;;;;;;18.00;5.13;;;6.30;99.90;;;;;;6277648;22;20073;-81
2024/01/27 16:38:35;;;;;;;20.67;5.30;;;6.20;99.90;;;;;;6275969;22;20016;-82
2024/01/27 16:41:01;;;;;;;21.33;4.95;;;6.20;99.90;;;;;;6276523;22;20027;-83
2024/01/27 16:43:27;;;;;;;20.90;5.57;;;6.10;99.90;;;;;;6275970;22;20548;-82
2024/01/27 16:45:56;;;;;;;21.02;4.85;;;6.10;99.90;;;;;;6277651;22;20007;-83
2024/01/27 16:48:22;;;;;;;22.27;4.95;;;6.10;99.90;;;;;;6275861;22;20011;-82
2024/01/27 16:50:48;;;;;;;19.10;5.22;;;6.10;99.90;;;;;;6275816;22;20012;-81
2024/01/27 16:53:14;;;;;;;19.60;5.05;;;6.00;99.90;;;;;;6275588;22;20018;-82
2024/01/27 16:55:40;;;;;;;23.55;5.25;;;6.00;99.90;;;;;;6275584;22;20039;-81
2024/01/27 16:58:07;;;;;;;20.92;5.70;;;6.00;99.90;;;;;;6275270;22;20369;-82
2024/01/27 17:00:33;;;;;;;18.13;4.68;;;6.00;99.90;;;;;;6273562;22;20011;-82
2024/01/27 17:02:59;;;;;;;15.82;5.10;;;5.90;99.90;;;;;;6246696;23;20098;-83
2024/01/27 17:05:25;;;;;;;18.90;5.03;;;6.00;99.90;;;;;;6219644;23;20047;-82
2024/01/27 17:07:51;;;;;;;22.25;4.82;;;5.90;99.90;;;;;;6247206;23;20102;-83
2024/01/27 17:10:16;;;;;;;26.13;6.05;;;5.90;99.90;;;;;;6219897;22;20086;-85
2024/01/27 17:12:42;;;;;;;19.88;4.63;;;5.80;99.90;;;;;;6220091;23;20012;-85